Time;durP1;ratioP1;P1;durP2;ratioP2;P2;SDS_P1;SDS_P2;PMS_P1;PMS_P2;Temp;Humidity;BMP_temperature;BMP_pressure;BME280_temperature;BME280_humidity;BME280_pressure;Samples;Min_cycle;Max_cycle;Signal;HPM_P1;HPM_P2
2023/09/07 00:01:22;;;;;;;4.10;3.00;;;;;;;25.99;32.92;101228.48;103201;1299;69309;-84
2023/09/07 00:03:48;;;;;;;3.80;3.20;;;;;;;25.98;32.88;101228.90;103573;1300;70284;-84
2023/09/07 00:06:13;;;;;;;3.30;3.00;;;;;;;25.99;32.64;101227.77;103159;1302;69048;-89
2023/09/07 00:08:39;;;;;;;3.60;3.10;;;;;;;25.98;32.89;101227.55;103125;1301;69203;-83
2023/09/07 00:11:09;;;;;;;3.30;3.00;;;;;;;25.98;32.86;101225.71;103128;1298;69180;-83
2023/09/07 00:13:35;;;;;;;5.20;3.20;;;;;;;25.98;32.95;101229.37;103166;1300;69154;-83
2023/09/07 00:16:01;;;;;;;3.60;3.30;;;;;;;25.97;32.75;101229.90;103038;1305;69204;-83
2023/09/07 00:18:27;;;;;;;4.80;3.20;;;;;;;25.98;32.75;101232.77;103127;1299;69386;-84
2023/09/07 00:20:52;;;;;;;4.00;3.40;;;;;;;25.97;32.78;101228.45;103095;1299;69273;-83
2023/09/07 00:23:19;;;;;;;3.90;2.90;;;;;;;25.97;32.87;101228.30;103342;1300;69264;-83
2023/09/07 00:25:45;;;;;;;3.80;3.20;;;;;;;25.96;32.96;101224.95;103596;1300;69294;-83
2023/09/07 00:28:11;;;;;;;4.30;3.00;;;;;;;25.96;32.89;101218.35;103466;1299;67983;-84
2023/09/07 00:30:36;;;;;;;3.40;3.00;;;;;;;25.96;32.68;101220.72;103568;1300;69267;-84
2023/09/07 00:33:02;;;;;;;3.70;3.10;;;;;;;25.96;32.77;101222.02;103860;1299;69346;-89
2023/09/07 00:35:28;;;;;;;3.20;2.90;;;;;;;25.97;32.62;101220.20;105743;1297;67003;-84
2023/09/07 00:37:54;;;;;;;4.30;3.30;;;;;;;25.97;32.91;101217.67;104095;1302;69302;-84
2023/09/07 00:40:20;;;;;;;4.60;3.40;;;;;;;25.97;32.83;101217.25;103098;1302;69211;-83
2023/09/07 00:42:46;;;;;;;4.20;3.20;;;;;;;25.97;32.79;101219.23;103068;1302;69253;-84
2023/09/07 00:45:13;;;;;;;5.80;3.40;;;;;;;25.97;32.80;101220.40;103151;1299;69173;-84
2023/09/07 00:47:38;;;;;;;3.60;3.30;;;;;;;25.97;32.73;101220.71;103044;1301;73435;-83
2023/09/07 00:50:07;;;;;;;4.30;3.30;;;;;;;25.98;32.83;101219.48;103035;1300;69294;-83
2023/09/07 00:52:33;;;;;;;3.10;2.80;;;;;;;25.97;32.77;101217.67;103023;1302;69144;-83
2023/09/07 00:55:01;;;;;;;3.60;2.90;;;;;;;25.96;32.87;101216.59;103095;1298;69275;-83
2023/09/07 00:57:27;;;;;;;3.40;3.10;;;;;;;25.96;32.63;101218.41;103142;1299;70333;-84
2023/09/07 00:59:52;;;;;;;3.80;3.00;;;;;;;25.95;32.89;101216.14;103078;1300;67471;-89
2023/09/07 01:02:18;;;;;;;3.80;3.10;;;;;;;25.95;32.63;101219.95;103098;1300;69280;-83
2023/09/07 01:04:43;;;;;;;3.60;3.10;;;;;;;25.94;32.78;101218.26;103096;1302;69316;-83
2023/09/07 01:07:23;;;;;;;4.70;3.10;;;;;;;25.95;32.92;101219.44;103105;1299;69232;-84
2023/09/07 01:09:50;;;;;;;5.30;3.20;;;;;;;25.94;32.60;101221.91;103045;1299;73392;-84
2023/09/07 01:12:15;;;;;;;3.40;3.10;;;;;;;25.94;32.87;101224.03;103086;1297;69161;-84
2023/09/07 01:14:41;;;;;;;4.00;3.50;;;;;;;25.93;32.80;101227.48;102996;1300;69278;-84
2023/09/07 01:17:07;;;;;;;3.90;3.40;;;;;;;25.93;32.72;101227.19;103402;1299;69320;-84
2023/09/07 01:19:33;;;;;;;3.50;3.10;;;;;;;25.92;32.62;101230.09;103410;1300;69299;-84
2023/09/07 01:21:58;;;;;;;3.70;3.10;;;;;;;25.93;32.90;101229.83;103088;1299;69139;-84
2023/09/07 01:24:24;;;;;;;3.70;3.10;;;;;;;25.93;32.76;101227.19;102913;1300;69691;-84
2023/09/07 01:26:50;;;;;;;3.90;3.20;;;;;;;25.93;32.80;101226.62;102998;1297;69296;-84
2023/09/07 01:29:16;;;;;;;4.10;3.40;;;;;;;25.93;32.82;101222.91;102910;1299;69382;-84
2023/09/07 01:31:42;;;;;;;3.60;3.10;;;;;;;25.92;32.92;101223.23;102936;1300;69034;-84
2023/09/07 01:34:08;;;;;;;3.20;2.90;;;;;;;25.92;32.96;101219.26;102985;1297;69275;-84
2023/09/07 01:36:34;;;;;;;3.40;3.10;;;;;;;25.92;32.85;101221.79;103085;1297;69258;-84
2023/09/07 01:39:00;;;;;;;5.00;3.50;;;;;;;25.91;32.86;101219.01;103078;1300;69306;-84
2023/09/07 01:41:26;;;;;;;4.10;3.10;;;;;;;25.91;32.83;101217.46;103140;1299;69183;-84
2023/09/07 01:43:52;;;;;;;4.30;3.10;;;;;;;25.91;32.75;101217.46;103116;1300;69217;-84
2023/09/07 01:46:17;;;;;;;3.40;3.10;;;;;;;25.91;32.99;101220.41;103091;1302;69294;-84
2023/09/07 01:48:43;;;;;;;3.50;3.10;;;;;;;25.91;32.73;101217.36;103292;1300;69325;-84
2023/09/07 01:51:08;;;;;;;3.90;3.20;;;;;;;25.90;32.87;101220.88;103279;1299;69271;-84
2023/09/07 01:53:34;;;;;;;3.20;2.90;;;;;;;25.90;32.97;101222.00;103137;1302;68441;-84
2023/09/07 01:55:59;;;;;;;3.70;3.20;;;;;;;25.90;32.64;101227.11;103078;1297;70349;-84
2023/09/07 01:58:25;;;;;;;3.60;3.20;;;;;;;25.90;32.62;101226.65;103030;1299;69214;-84
2023/09/07 02:00:52;;;;;;;3.10;2.70;;;;;;;25.89;32.95;101229.70;103035;1297;69288;-84
2023/09/07 02:03:18;;;;;;;3.40;3.00;;;;;;;25.89;32.71;101231.55;103132;1300;69287;-84
2023/09/07 02:05:45;;;;;;;4.50;3.00;;;;;;;25.89;32.68;101230.06;103064;1300;69207;-90
2023/09/07 02:08:11;;;;;;;3.90;3.10;;;;;;;25.89;32.48;101231.35;102989;1298;69292;-83
2023/09/07 02:10:37;;;;;;;4.20;3.50;;;;;;;25.89;32.77;101226.23;103082;1300;69292;-84
2023/09/07 02:13:03;;;;;;;4.40;3.30;;;;;;;25.89;32.74;101228.10;103086;1300;69309;-83
2023/09/07 02:15:29;;;;;;;3.60;3.20;;;;;;;25.88;32.86;101225.89;103136;1299;69378;-84
2023/09/07 02:17:54;;;;;;;3.30;3.00;;;;;;;25.88;32.74;101224.77;103113;1300;69252;-84
2023/09/07 02:20:20;;;;;;;3.60;3.30;;;;;;;25.89;32.66;101218.27;103070;1299;69277;-84
2023/09/07 02:22:45;;;;;;;3.70;2.90;;;;;;;25.88;32.94;101217.34;103078;1297;70217;-84
2023/09/07 02:25:11;;;;;;;3.80;3.50;;;;;;;25.88;32.70;101218.36;103016;1300;69268;-84
2023/09/07 02:27:36;;;;;;;5.00;3.40;;;;;;;25.88;32.73;101219.30;103105;1300;69267;-84
2023/09/07 02:30:05;;;;;;;3.20;2.90;;;;;;;25.87;32.79;101217.29;103138;1299;69157;-84
2023/09/07 02:32:31;;;;;;;3.80;3.30;;;;;;;25.88;32.90;101220.44;103059;1299;69237;-89
2023/09/07 02:34:57;;;;;;;4.20;3.40;;;;;;;25.88;32.82;101218.33;102890;1302;69251;-84
2023/09/07 02:37:23;;;;;;;3.90;3.50;;;;;;;25.87;32.62;101220.23;102974;1302;69315;-83
2023/09/07 02:39:48;;;;;;;3.70;3.20;;;;;;;25.87;32.81;101219.05;103115;1297;69245;-83
2023/09/07 02:42:14;;;;;;;3.70;3.30;;;;;;;25.87;32.85;101217.81;102977;1299;69262;-84
2023/09/07 02:44:39;;;;;;;3.90;3.50;;;;;;;25.87;32.69;101221.06;103092;1299;69259;-87
2023/09/07 02:47:05;;;;;;;5.10;3.30;;;;;;;25.87;32.78;101223.89;102944;1297;69300;-84
2023/09/07 02:49:30;;;;;;;3.50;3.20;;;;;;;25.87;32.83;101223.17;103012;1300;69258;-84
2023/09/07 02:51:56;;;;;;;4.70;3.50;;;;;;;25.86;32.64;101223.39;103028;1297;67635;-84
2023/09/07 02:54:22;;;;;;;3.90;3.20;;;;;;;25.87;32.78;101223.13;103165;1298;69268;-84
2023/09/07 02:56:48;;;;;;;3.70;3.10;;;;;;;25.86;32.74;101228.75;103285;1302;69058;-84
2023/09/07 02:59:14;;;;;;;3.90;3.50;;;;;;;25.86;32.85;101231.43;103107;1299;69190;-84
2023/09/07 03:01:39;;;;;;;4.60;3.40;;;;;;;25.86;32.67;101233.70;103161;1297;69261;-84
2023/09/07 03:04:05;;;;;;;3.70;2.90;;;;;;;25.86;32.56;101231.95;103076;1299;69313;-84
2023/09/07 03:06:31;;;;;;;6.20;3.80;;;;;;;25.85;32.85;101230.92;103079;1300;69993;-84
2023/09/07 03:08:56;;;;;;;4.50;3.70;;;;;;;25.83;32.68;101229.02;103201;1297;69243;-84
2023/09/07 03:11:22;;;;;;;7.50;4.40;;;;;;;25.78;32.27;101230.41;102995;1300;70176;-90
2023/09/07 03:13:48;;;;;;;7.10;4.20;;;;;;;25.68;31.82;101230.45;103226;1300;69308;-84
2023/09/07 03:16:13;;;;;;;6.60;4.00;;;;;;;25.55;31.43;101233.11;103119;1301;69361;-83
2023/09/07 03:18:39;;;;;;;5.40;4.40;;;;;;;25.43;31.44;101231.18;103159;1300;69203;-84
2023/09/07 03:21:04;;;;;;;6.40;4.10;;;;;;;25.37;32.13;101231.52;103200;1301;69332;-84
2023/09/07 03:23:30;;;;;;;5.80;4.30;;;;;;;25.36;32.22;101233.66;103090;1299;69262;-89
2023/09/07 03:25:57;;;;;;;7.20;4.30;;;;;;;25.32;32.07;101236.06;103419;1299;69743;-84
2023/09/07 03:28:23;;;;;;;285.20;17.30;;;;;;;25.30;32.32;101234.21;103398;1300;69232;-84
2023/09/07 03:30:48;;;;;;;48.30;7.50;;;;;;;25.27;32.17;101237.65;103196;1297;69219;-84
2023/09/07 03:33:13;;;;;;;19.50;6.20;;;;;;;25.24;31.93;101237.83;103147;1300;69307;-84
2023/09/07 03:35:40;;;;;;;13.80;4.80;;;;;;;25.21;31.96;101238.40;103401;1300;69325;-84
2023/09/07 03:38:06;;;;;;;10.50;4.40;;;;;;;25.19;31.93;101241.66;103093;1299;69163;-83
2023/09/07 03:40:31;;;;;;;12.00;5.30;;;;;;;25.15;32.10;101246.52;102928;1299;288551;-83
2023/09/07 03:42:57;;;;;;;9.70;5.30;;;;;;;25.06;32.60;101243.06;103205;1300;69293;-83
2023/09/07 03:45:22;;;;;;;10.70;4.90;;;;;;;24.96;32.77;101248.31;103163;1299;69293;-84
2023/09/07 03:47:48;;;;;;;6.50;5.10;;;;;;;24.87;32.19;101251.54;103197;1299;69232;-84
2023/09/07 03:50:13;;;;;;;12.20;10.30;;;;;;;24.80;32.49;101252.03;103158;1298;69222;-89
2023/09/07 03:52:39;;;;;;;11.30;6.80;;;;;;;24.74;32.34;101253.45;103202;1299;69294;-83
2023/09/07 03:55:05;;;;;;;12.90;8.10;;;;;;;24.68;32.20;101252.51;103176;1299;69271;-85
2023/09/07 03:57:30;;;;;;;7.00;5.60;;;;;;;24.63;31.93;101250.88;103119;1299;67182;-85
2023/09/07 03:59:56;;;;;;;7.00;4.50;;;;;;;24.59;31.98;101254.95;103148;1299;69200;-85
2023/09/07 04:02:23;;;;;;;5.40;4.20;;;;;;;24.55;31.87;101250.27;103046;1300;69368;-91
2023/09/07 04:04:52;;;;;;;5.40;4.00;;;;;;;24.49;31.91;101250.35;103033;1297;69247;-84
2023/09/07 04:07:18;;;;;;;8.10;4.70;;;;;;;24.39;31.70;101256.38;103265;1300;73522;-84
2023/09/07 04:09:44;;;;;;;5.90;3.90;;;;;;;24.29;31.76;101255.83;103061;1298;69263;-84
2023/09/07 04:12:10;;;;;;;8.40;4.60;;;;;;;24.21;31.95;101259.23;103150;1299;69284;-84
2023/09/07 04:14:35;;;;;;;8.70;4.00;;;;;;;24.13;32.11;101258.69;103201;1299;69173;-85
2023/09/07 04:17:01;;;;;;;6.50;4.60;;;;;;;24.08;32.03;101261.56;103202;1300;69133;-86
2023/09/07 04:19:59;;;;;;;8.00;4.40;;;;;;;24.03;32.19;101263.52;103071;1300;75266;-86
2023/09/07 04:22:57;;;;;;;8.00;4.40;;;;;;;23.99;32.25;101264.95;103239;1299;69322;-86
2023/09/07 04:30:18;;;;;;;15.80;4.90;;;;;;;23.88;32.34;101263.48;103436;1297;70840;-91
2023/09/07 04:33:16;;;;;;;17.80;4.40;;;;;;;23.81;32.44;101265.03;103409;1297;69201;-85
2023/09/07 04:35:41;;;;;;;10.50;4.40;;;;;;;23.80;32.56;101267.24;103572;1297;69358;-86
2023/09/07 04:38:15;;;;;;;12.60;4.20;;;;;;;23.79;32.61;101271.56;103365;1297;69297;-90
2023/09/07 04:40:41;;;;;;;12.90;3.90;;;;;;;23.81;32.67;101271.55;103341;1301;69495;-86
2023/09/07 04:43:06;;;;;;;13.90;4.60;;;;;;;23.85;32.70;101276.65;103544;1300;69322;-85
2023/09/07 04:45:32;;;;;;;8.80;4.30;;;;;;;23.87;32.65;101273.77;103571;1300;69294;-86
2023/09/07 04:47:57;;;;;;;10.60;4.40;;;;;;;23.86;32.65;101274.43;103616;1299;69296;-85
2023/09/07 04:50:23;;;;;;;15.30;5.10;;;;;;;23.85;32.64;101273.10;103736;1299;69300;-86
2023/09/07 04:52:48;;;;;;;21.00;4.80;;;;;;;23.81;32.68;101276.59;103360;1299;67403;-86
2023/09/07 04:55:14;;;;;;;9.50;4.30;;;;;;;23.82;32.85;101283.17;103627;1300;69290;-86
2023/09/07 04:57:40;;;;;;;6.70;4.40;;;;;;;23.80;32.85;101283.68;103632;1300;69200;-86
2023/09/07 05:00:07;;;;;;;11.20;4.20;;;;;;;23.77;32.79;101287.02;103612;1298;69209;-87
2023/09/07 05:02:38;;;;;;;7.40;4.40;;;;;;;23.74;32.95;101290.81;103486;1303;69252;-87
2023/09/07 05:05:13;;;;;;;9.60;4.00;;;;;;;23.76;32.96;101287.58;103516;1299;67478;-92
2023/09/07 05:07:39;;;;;;;7.40;4.40;;;;;;;23.78;32.91;101287.59;103605;1298;74708;-87
2023/09/07 05:10:06;;;;;;;7.10;4.30;;;;;;;23.81;32.75;101288.52;103817;1299;69318;-86
2023/09/07 05:12:32;;;;;;;11.80;4.50;;;;;;;23.81;32.86;101288.82;103652;1299;69258;-86
2023/09/07 05:14:57;;;;;;;17.40;5.00;;;;;;;23.84;32.82;101294.33;103909;1299;69274;-87
2023/09/07 05:17:23;;;;;;;15.60;4.70;;;;;;;23.87;33.01;101293.45;103829;1299;66995;-87
2023/09/07 05:19:48;;;;;;;13.50;4.40;;;;;;;23.90;32.78;101291.95;103582;1300;69575;-87
2023/09/07 05:22:14;;;;;;;11.20;4.50;;;;;;;23.93;33.03;101295.73;103721;1298;70843;-87
2023/09/07 05:24:40;;;;;;;10.60;4.30;;;;;;;23.96;33.00;101297.63;103678;1299;69252;-86
2023/09/07 05:27:06;;;;;;;9.80;4.60;;;;;;;23.97;32.88;101299.99;104002;1299;69176;-87
2023/09/07 05:29:31;;;;;;;10.80;4.70;;;;;;;23.97;32.74;101301.59;104365;1299;69327;-88
2023/09/07 05:32:06;;;;;;;10.40;4.60;;;;;;;23.97;32.86;101304.57;103901;1299;69283;-91
2023/09/07 05:43:28;;;;;;;16.20;4.70;;;;;;;24.05;32.94;101316.30;103606;1300;73460;-87
2023/09/07 05:46:27;;;;;;;10.30;5.30;;;;;;;24.07;32.85;101311.48;103931;1296;69196;-87
2023/09/07 05:48:55;;;;;;;8.00;4.60;;;;;;;24.10;32.70;101314.89;103778;1296;553027;-87
2023/09/07 05:51:22;;;;;;;8.20;4.50;;;;;;;24.13;32.86;101314.87;103826;1297;69430;-86
2023/09/07 05:53:47;;;;;;;7.10;4.60;;;;;;;24.18;32.92;101312.73;103708;1297;69126;-87
2023/09/07 05:56:13;;;;;;;8.90;4.90;;;;;;;24.22;32.83;101316.98;103791;1297;69286;-86
2023/09/07 05:58:38;;;;;;;6.10;4.60;;;;;;;24.24;32.85;101315.24;103820;1296;67614;-87
2023/09/07 06:01:05;;;;;;;8.70;4.40;;;;;;;24.24;32.85;101314.77;104004;1296;70412;-86
2023/09/07 06:03:32;;;;;;;9.80;4.40;;;;;;;24.25;32.95;101318.21;104053;1296;69354;-86
2023/09/07 06:05:57;;;;;;;10.90;4.40;;;;;;;24.27;32.91;101318.38;103684;1296;73526;-87
2023/09/07 06:08:55;;;;;;;7.60;4.70;;;;;;;24.28;32.75;101321.36;103558;1295;69226;-86
2023/09/07 06:11:20;;;;;;;8.00;4.60;;;;;;;24.29;32.68;101323.58;103564;1296;69280;-86
2023/09/07 06:13:47;;;;;;;13.10;4.60;;;;;;;24.30;32.95;101324.45;103450;1296;69293;-87
2023/09/07 06:16:12;;;;;;;9.00;4.50;;;;;;;24.30;32.81;101320.64;103324;1296;69154;-86
2023/09/07 06:18:38;;;;;;;8.70;4.60;;;;;;;24.31;32.70;101327.48;103416;1296;69177;-86
2023/09/07 06:21:05;;;;;;;6.90;4.40;;;;;;;24.33;32.77;101326.27;103372;1297;69601;-86
2023/09/07 06:23:31;;;;;;;12.60;5.10;;;;;;;24.35;32.91;101327.37;103648;1297;69286;-86
2023/09/07 06:25:56;;;;;;;11.40;4.70;;;;;;;24.36;32.73;101324.59;103559;1297;69221;-86
2023/09/07 06:28:22;;;;;;;9.80;5.00;;;;;;;24.38;32.89;101328.02;103608;1296;69258;-85
2023/09/07 06:30:48;;;;;;;13.20;4.90;;;;;;;24.40;32.80;101329.98;103602;1296;69225;-86
2023/09/07 06:33:13;;;;;;;12.90;4.90;;;;;;;24.42;32.90;101333.69;103712;1296;69272;-86
2023/09/07 06:35:39;;;;;;;9.50;4.30;;;;;;;24.43;32.80;101329.73;103537;1297;69191;-86
2023/09/07 06:38:05;;;;;;;9.90;4.50;;;;;;;24.45;32.86;101338.21;103840;1296;67507;-85
2023/09/07 06:40:31;;;;;;;13.50;4.80;;;;;;;24.47;32.73;101337.39;103686;1297;70575;-85
2023/09/07 06:42:56;;;;;;;13.10;4.50;;;;;;;24.50;32.88;101343.25;103654;1296;69210;-85
2023/09/07 06:45:25;;;;;;;8.50;4.30;;;;;;;24.52;32.88;101342.48;103653;1300;68373;-86
2023/09/07 06:47:51;;;;;;;10.50;4.80;;;;;;;24.54;32.83;101346.90;103794;1299;69278;-86
2023/09/07 06:50:17;;;;;;;10.20;4.70;;;;;;;24.56;32.88;101350.80;103630;1299;69387;-86
2023/09/07 06:52:47;;;;;;;10.20;7.30;;;;;;;24.58;32.78;101347.40;103541;1299;69348;-91
2023/09/07 06:55:18;;;;;;;9.70;5.10;;;;;;;24.61;32.94;101347.55;103816;1299;69781;-86
2023/09/07 06:57:43;;;;;;;11.20;4.70;;;;;;;24.62;32.96;101346.17;103876;1302;67273;-86
2023/09/07 07:00:10;;;;;;;13.10;5.40;;;;;;;24.65;33.06;101346.64;103667;1298;69319;-86
2023/09/07 07:02:36;;;;;;;12.20;5.70;;;;;;;24.66;32.96;101349.66;103574;1300;69591;-86
2023/09/07 07:05:02;;;;;;;8.60;5.20;;;;;;;24.68;33.23;101345.02;103596;1298;70314;-86
2023/09/07 07:07:29;;;;;;;11.80;7.90;;;;;;;24.69;33.20;101350.59;103349;1300;69117;-84
2023/09/07 07:09:58;;;;;;;20.80;11.70;;;;;;;24.71;33.14;101348.06;103816;1300;69321;-87
2023/09/07 07:12:23;;;;;;;16.30;10.10;;;;;;;24.71;33.11;101346.08;104081;1302;69039;-88
2023/09/07 07:14:49;;;;;;;22.50;12.60;;;;;;;24.73;33.10;101345.05;103946;1302;69172;-86
2023/09/07 07:17:15;;;;;;;17.60;12.10;;;;;;;24.75;32.94;101344.27;103846;1300;69156;-86
2023/09/07 07:19:42;;;;;;;18.10;9.80;;;;;;;24.78;32.90;101343.40;104054;1299;69257;-89
2023/09/07 07:22:08;;;;;;;11.80;7.00;;;;;;;24.81;33.06;101344.77;103399;1302;69274;-87
2023/09/07 07:24:34;;;;;;;15.60;7.70;;;;;;;24.83;32.96;101343.84;104063;1299;69177;-87
2023/09/07 07:27:00;;;;;;;14.10;6.70;;;;;;;24.85;33.03;101347.48;103583;1300;70429;-83
2023/09/07 07:29:25;;;;;;;13.70;7.00;;;;;;;24.87;32.93;101347.59;103416;1300;68376;-83
2023/09/07 07:31:51;;;;;;;14.60;6.10;;;;;;;24.89;32.99;101348.31;103283;1300;70491;-84
2023/09/07 07:34:16;;;;;;;9.30;5.40;;;;;;;24.93;32.88;101347.36;103385;1300;70875;-84
2023/09/07 07:36:42;;;;;;;12.20;5.80;;;;;;;24.94;32.87;101347.30;103507;1298;69915;-85
2023/09/07 07:39:08;;;;;;;14.90;6.10;;;;;;;24.97;32.79;101345.20;104772;1299;69306;-85
2023/09/07 07:41:33;;;;;;;11.30;5.20;;;;;;;25.00;32.86;101344.05;105713;1300;66543;-85
2023/09/07 07:43:58;;;;;;;13.00;5.20;;;;;;;25.02;32.88;101333.45;105939;1298;67077;-86
2023/09/07 07:49:09;;;;;;;25.50;5.10;;;;;;;25.08;32.77;101335.07;103969;1301;560093;-85
2023/09/07 07:51:34;;;;;;;26.90;6.00;;;;;;;25.11;32.87;101333.58;103664;1299;67332;-85
2023/09/07 07:54:00;;;;;;;16.90;5.00;;;;;;;25.13;32.83;101335.31;103631;1303;69296;-85
2023/09/07 07:56:25;;;;;;;20.10;5.80;;;;;;;25.15;32.65;101331.99;103498;1297;69282;-85
2023/09/07 07:58:51;;;;;;;15.50;5.20;;;;;;;25.16;32.48;101328.74;103459;1297;69287;-85
2023/09/07 08:03:51;;;;;;;10.80;4.80;;;;;;;25.19;32.56;101329.46;103889;1294;69206;-84
2023/09/07 08:06:17;;;;;;;11.00;4.10;;;;;;;25.20;32.45;101328.48;103647;1298;69297;-84
2023/09/07 08:08:42;;;;;;;8.40;4.30;;;;;;;25.22;32.21;101325.27;103910;1295;69264;-85
2023/09/07 08:11:08;;;;;;;9.00;4.60;;;;;;;25.24;32.50;101324.19;103629;1297;69213;-84
2023/09/07 08:13:34;;;;;;;9.70;4.30;;;;;;;25.25;32.33;101324.60;103589;1302;68067;-86
2023/09/07 08:16:01;;;;;;;11.60;4.80;;;;;;;25.26;32.11;101329.08;104180;1296;69295;-85
2023/09/07 08:18:27;;;;;;;10.20;4.40;;;;;;;25.27;32.31;101325.81;103902;1300;73775;-85
2023/09/07 08:20:54;;;;;;;12.80;4.80;;;;;;;25.29;32.08;101320.85;103562;1302;68105;-85
2023/09/07 08:23:19;;;;;;;8.00;4.20;;;;;;;25.29;32.36;101321.63;103869;1296;69281;-85
2023/09/07 08:25:46;;;;;;;8.80;4.20;;;;;;;25.29;32.05;101327.10;104156;1302;69206;-85
2023/09/07 08:31:01;;;;;;;8.80;4.40;;;;;;;25.29;31.97;101333.42;103659;1301;556783;-85
2023/09/07 08:33:30;;;;;;;11.90;4.60;;;;;;;25.30;32.00;101329.98;103871;1302;71040;-85
2023/09/07 08:35:56;;;;;;;7.80;4.00;;;;;;;25.31;31.86;101331.83;103678;1301;69236;-85
2023/09/07 08:38:25;;;;;;;8.60;4.40;;;;;;;25.32;31.91;101328.27;103489;1297;69273;-85
2023/09/07 08:40:55;;;;;;;7.00;3.90;;;;;;;25.33;32.06;101327.70;103523;1297;69167;-84
2023/09/07 08:43:31;;;;;;;10.10;4.60;;;;;;;25.35;32.01;101326.00;103399;1302;74547;-90
2023/09/07 08:48:42;;;;;;;8.20;4.60;;;;;;;25.35;31.83;101323.16;103715;1295;69143;-85
2023/09/07 08:51:07;;;;;;;10.30;4.50;;;;;;;25.34;31.87;101322.86;103746;1301;69220;-85
2023/09/07 08:53:33;;;;;;;9.00;4.40;;;;;;;25.35;31.76;101321.09;103562;1297;69252;-86
2023/09/07 08:56:01;;;;;;;12.10;5.00;;;;;;;25.36;31.94;101318.05;103515;1305;69281;-85
2023/09/07 08:58:26;;;;;;;16.60;4.70;;;;;;;25.35;31.65;101320.83;104084;1299;69344;-87
2023/09/07 09:00:53;;;;;;;8.70;4.20;;;;;;;25.36;31.53;101320.63;103882;1297;69209;-87
2023/09/07 09:03:18;;;;;;;9.60;4.60;;;;;;;25.37;31.69;101314.34;103809;1297;69375;-84
2023/09/07 09:05:44;;;;;;;7.80;4.20;;;;;;;25.37;31.55;101308.05;103767;1297;69288;-85
2023/09/07 09:08:10;;;;;;;10.40;4.40;;;;;;;25.37;31.47;101308.58;103797;1301;67251;-86
2023/09/07 09:10:38;;;;;;;14.40;4.40;;;;;;;25.38;31.47;101304.50;103448;1297;69277;-86
2023/09/07 09:15:54;;;;;;;10.20;4.50;;;;;;;25.40;31.21;101302.63;103291;1299;557482;-85
2023/09/07 09:18:20;;;;;;;12.60;4.70;;;;;;;25.42;31.19;101302.98;103583;1298;69191;-85
2023/09/07 09:20:45;;;;;;;7.60;4.70;;;;;;;25.42;31.40;101299.89;103535;1297;69636;-84
2023/09/07 09:23:13;;;;;;;9.70;4.80;;;;;;;25.43;31.29;101294.65;103915;1296;69357;-85
2023/09/07 09:25:40;;;;;;;13.20;7.20;;;;;;;25.43;31.21;101294.23;104524;1297;67409;-85
2023/09/07 09:28:10;;;;;;;14.00;9.00;;;;;;;25.44;31.28;101293.51;104951;1297;66700;-89
2023/09/07 09:30:37;;;;;;;27.70;9.10;;;;;;;25.46;31.23;101289.48;103849;1297;75337;-84
2023/09/07 09:33:05;;;;;;;13.70;7.10;;;;;;;25.47;31.29;101281.90;104256;1297;69172;-84
2023/09/07 09:35:31;;;;;;;18.90;8.60;;;;;;;25.50;31.55;101274.73;103882;1297;69115;-84
2023/09/07 09:38:01;;;;;;;16.30;11.10;;;;;;;25.54;31.30;101277.23;104145;1301;69163;-84
2023/09/07 09:40:26;;;;;;;17.60;9.80;;;;;;;25.56;31.40;101269.43;103722;1301;69115;-85
2023/09/07 09:42:52;;;;;;;12.60;7.30;;;;;;;25.58;31.43;101268.85;103755;1298;69157;-84
2023/09/07 09:45:17;;;;;;;15.90;6.10;;;;;;;25.61;31.49;101266.05;103553;1297;69312;-84
2023/09/07 09:47:43;;;;;;;10.80;4.70;;;;;;;25.64;31.35;101266.44;103335;1298;69203;-84
2023/09/07 09:50:10;;;;;;;12.50;4.30;;;;;;;25.67;31.24;101261.36;104077;1298;69210;-85
2023/09/07 09:52:39;;;;;;;12.70;4.90;;;;;;;25.69;31.00;101261.00;103711;1299;74523;-85
2023/09/07 09:55:08;;;;;;;11.90;4.20;;;;;;;25.71;30.76;101257.84;103505;1299;69170;-91
2023/09/07 09:57:36;;;;;;;10.70;4.50;;;;;;;25.72;31.01;101253.77;103388;1300;69175;-85
2023/09/07 10:03:18;;;;;;;9.80;4.70;;;;;;;25.74;31.22;101249.16;103373;1303;69211;-86
2023/09/07 10:05:46;;;;;;;14.30;4.70;;;;;;;25.75;31.37;101249.00;103709;1299;73568;-86
2023/09/07 10:08:13;;;;;;;10.90;4.60;;;;;;;25.76;31.58;101250.94;103532;1299;69330;-85
2023/09/07 10:10:39;;;;;;;8.20;4.60;;;;;;;25.77;31.46;101255.41;103602;1298;70552;-86
2023/09/07 10:13:04;;;;;;;10.70;4.50;;;;;;;25.78;31.43;101255.98;103625;1299;69391;-87
2023/09/07 10:15:31;;;;;;;11.20;4.90;;;;;;;25.78;31.54;101259.38;103222;1301;67334;-86
2023/09/07 10:18:08;;;;;;;11.50;5.10;;;;;;;25.77;31.67;101256.24;103533;1299;69213;-86
2023/09/07 10:20:52;;;;;;;8.00;4.60;;;;;;;25.78;31.89;101254.17;103699;1299;69732;-86
2023/09/07 10:23:18;;;;;;;9.40;5.30;;;;;;;25.78;31.84;101250.40;103822;1299;69321;-86
2023/09/07 10:25:51;;;;;;;10.40;5.20;;;;;;;25.80;32.08;101248.99;103687;1299;69309;-86
2023/09/07 10:28:18;;;;;;;11.70;5.30;;;;;;;25.79;32.03;101248.48;104056;1298;69032;-86
2023/09/07 10:30:44;;;;;;;15.90;5.50;;;;;;;25.79;31.96;101245.09;103762;1299;73294;-87
2023/09/07 10:33:21;;;;;;;12.40;6.50;;;;;;;25.79;31.89;101245.66;103680;1300;69238;-86
2023/09/07 10:35:47;;;;;;;10.00;6.20;;;;;;;25.79;31.87;101243.34;103554;1300;69278;-86
2023/09/07 10:38:16;;;;;;;11.90;6.40;;;;;;;25.79;31.46;101241.64;103533;1300;69213;-86
2023/09/07 10:40:47;;;;;;;10.10;6.70;;;;;;;25.78;31.48;101239.17;103681;1298;69282;-86
2023/09/07 10:43:13;;;;;;;11.50;6.60;;;;;;;25.78;31.54;101236.80;103694;1299;73409;-86
2023/09/07 10:45:39;;;;;;;9.40;6.10;;;;;;;25.79;31.65;101234.01;103682;1302;69288;-86
2023/09/07 10:48:06;;;;;;;9.30;5.90;;;;;;;25.78;31.60;101232.01;103630;1300;69275;-87
2023/09/07 10:50:45;;;;;;;13.80;5.70;;;;;;;25.78;31.62;101231.34;103499;1299;68027;-86
2023/09/07 10:53:12;;;;;;;12.70;5.40;;;;;;;25.78;31.58;101231.50;103562;1302;69115;-86
2023/09/07 10:55:43;;;;;;;8.80;4.90;;;;;;;25.79;31.58;101230.45;103317;1300;73629;-85
2023/09/07 10:58:10;;;;;;;9.50;4.80;;;;;;;25.79;31.50;101224.27;103260;1300;69265;-86
2023/09/07 11:00:36;;;;;;;8.60;5.50;;;;;;;25.80;31.66;101224.46;103194;1298;67037;-86
2023/09/07 11:03:13;;;;;;;10.20;4.70;;;;;;;25.80;31.50;101223.89;103313;1302;69320;-86
2023/09/07 11:05:41;;;;;;;8.60;4.60;;;;;;;25.79;31.36;101221.42;103496;1299;69193;-86
2023/09/07 11:08:07;;;;;;;8.10;4.70;;;;;;;25.80;31.54;101216.31;103680;1299;73351;-86
2023/09/07 11:10:36;;;;;;;8.00;4.90;;;;;;;25.82;31.44;101215.94;103445;1305;69294;-87
2023/09/07 11:13:05;;;;;;;7.60;4.60;;;;;;;25.83;31.45;101210.11;103687;1298;69150;-87
2023/09/07 11:15:31;;;;;;;8.50;5.30;;;;;;;25.84;31.58;101212.94;103431;1299;69281;-88
2023/09/07 11:17:57;;;;;;;8.90;4.70;;;;;;;25.86;31.79;101214.00;103742;1299;69337;-87
2023/09/07 11:20:24;;;;;;;9.20;5.00;;;;;;;25.87;31.82;101199.47;103771;1300;69274;-88
2023/09/07 11:22:50;;;;;;;8.20;4.90;;;;;;;25.89;31.86;101192.33;103595;1300;69297;-87
2023/09/07 11:25:16;;;;;;;9.40;4.60;;;;;;;25.90;31.89;101197.52;103855;1299;69274;-87
2023/09/07 11:27:54;;;;;;;11.60;4.80;;;;;;;25.91;31.77;101199.16;103810;1302;69459;-91
2023/09/07 11:30:21;;;;;;;6.70;4.70;;;;;;;25.92;31.95;101199.26;103726;1299;67554;-87
2023/09/07 11:32:47;;;;;;;8.80;5.00;;;;;;;25.93;31.79;101190.38;103825;1302;74521;-86
2023/09/07 11:35:12;;;;;;;9.20;4.50;;;;;;;25.94;31.79;101194.39;103249;1302;69226;-87
2023/09/07 11:37:40;;;;;;;7.30;5.20;;;;;;;25.94;31.86;101179.95;103275;1302;69302;-88
2023/09/07 11:40:11;;;;;;;8.50;4.90;;;;;;;25.94;32.00;101180.41;103448;1300;66868;-87
2023/09/07 11:42:46;;;;;;;7.70;4.80;;;;;;;25.95;32.11;101180.63;103240;1302;69178;-92
2023/09/07 11:45:13;;;;;;;7.10;4.80;;;;;;;25.96;32.20;101177.46;103125;1302;73637;-86